Time;durP1;ratioP1;P1;durP2;ratioP2;P2;SDS_P1;SDS_P2;PMS_P1;PMS_P2;Temp;Humidity;BMP_temperature;BMP_pressure;BME280_temperature;BME280_humidity;BME280_pressure;Samples;Min_cycle;Max_cycle;Signal;HPM_P1;HPM_P2
2022/04/16 00:00:46;;;;;;;;;21.75;20.75;;;;;;;;5071156;28;49656;-67
2022/04/16 00:03:12;;;;;;;;;24.75;20.00;;;;;;;;5071816;28;49818;-70
2022/04/16 00:05:37;;;;;;;;;18.25;15.50;;;;;;;;5071551;27;49859;-70
2022/04/16 00:08:08;;;;;;;;;21.25;21.25;;;;;;;;5071187;28;49754;-64
2022/04/16 00:10:34;;;;;;;;;22.25;22.00;;;;;;;;5071424;28;49691;-61
2022/04/16 00:12:59;;;;;;;;;19.00;19.00;;;;;;;;5071145;28;49878;-63
2022/04/16 00:15:26;;;;;;;;;17.75;15.00;;;;;;;;5052914;28;49934;-59
2022/04/16 00:17:51;;;;;;;;;21.75;21.25;;;;;;;;5070799;27;50740;-62
2022/04/16 00:20:16;;;;;;;;;15.75;15.75;;;;;;;;5071176;28;49874;-65
2022/04/16 00:22:41;;;;;;;;;22.75;21.00;;;;;;;;5071154;28;49907;-71
2022/04/16 00:25:07;;;;;;;;;19.25;19.25;;;;;;;;5071148;28;49692;-65
2022/04/16 00:27:34;;;;;;;;;17.00;17.00;;;;;;;;5070915;27;50616;-70
2022/04/16 00:29:59;;;;;;;;;26.25;19.75;;;;;;;;5070862;28;49828;-66
2022/04/16 00:32:24;;;;;;;;;24.00;20.25;;;;;;;;5070872;28;49632;-67
2022/04/16 00:34:50;;;;;;;;;21.00;21.00;;;;;;;;5070892;28;49952;-70
2022/04/16 00:37:16;;;;;;;;;22.50;20.25;;;;;;;;5070619;27;51609;-69
2022/04/16 00:39:41;;;;;;;;;22.50;21.50;;;;;;;;5070755;28;49651;-69
2022/04/16 00:42:07;;;;;;;;;21.25;20.50;;;;;;;;5071043;28;49750;-68
2022/04/16 00:44:32;;;;;;;;;23.25;20.00;;;;;;;;5070867;28;49606;-70
2022/04/16 00:46:58;;;;;;;;;30.25;24.00;;;;;;;;5070319;28;50603;-65
2022/04/16 00:49:23;;;;;;;;;18.50;17.75;;;;;;;;5070120;28;49840;-61
2022/04/16 00:51:49;;;;;;;;;21.50;20.25;;;;;;;;5070556;28;50280;-59
2022/04/16 00:54:15;;;;;;;;;23.50;20.75;;;;;;;;5070465;28;49706;-59
2022/04/16 00:56:40;;;;;;;;;20.75;19.75;;;;;;;;5070250;28;50161;-61
2022/04/16 00:59:05;;;;;;;;;19.00;18.75;;;;;;;;5070410;28;49978;-60
2022/04/16 01:01:31;;;;;;;;;20.50;20.50;;;;;;;;5070365;28;49665;-61
2022/04/16 01:03:56;;;;;;;;;22.25;20.25;;;;;;;;5070667;28;49950;-66
2022/04/16 01:06:22;;;;;;;;;21.50;20.00;;;;;;;;5070214;28;50711;-60
2022/04/16 01:08:47;;;;;;;;;22.75;22.75;;;;;;;;5070046;27;49703;-64
2022/04/16 01:11:12;;;;;;;;;22.50;21.75;;;;;;;;5070440;28;50083;-70
2022/04/16 01:13:38;;;;;;;;;21.00;20.50;;;;;;;;5070219;28;49713;-60
2022/04/16 01:16:04;;;;;;;;;27.75;26.00;;;;;;;;5070096;28;50063;-61
2022/04/16 01:18:29;;;;;;;;;26.75;21.50;;;;;;;;5070267;28;49746;-67
2022/04/16 01:20:55;;;;;;;;;19.50;19.00;;;;;;;;5052050;28;49850;-59
2022/04/16 01:23:20;;;;;;;;;21.25;17.25;;;;;;;;5070128;27;49514;-64
2022/04/16 01:25:46;;;;;;;;;28.25;25.50;;;;;;;;5069989;28;49829;-60
2022/04/16 01:28:12;;;;;;;;;23.25;20.75;;;;;;;;5069847;28;49910;-70
2022/04/16 01:30:37;;;;;;;;;22.25;19.00;;;;;;;;5070092;27;50573;-68
2022/04/16 01:33:03;;;;;;;;;21.50;19.25;;;;;;;;5070547;28;49740;-61
2022/04/16 01:35:28;;;;;;;;;28.00;20.00;;;;;;;;5051919;28;51027;-70
2022/04/16 01:37:54;;;;;;;;;22.00;20.00;;;;;;;;5069983;28;49726;-59
2022/04/16 01:40:20;;;;;;;;;21.00;19.50;;;;;;;;5069812;28;49833;-59
2022/04/16 01:42:45;;;;;;;;;21.00;18.00;;;;;;;;5069035;28;50153;-59
2022/04/16 01:45:11;;;;;;;;;23.50;21.50;;;;;;;;5069044;28;50504;-60
2022/04/16 01:47:38;;;;;;;;;22.25;19.75;;;;;;;;5069702;28;49995;-61
2022/04/16 01:50:05;;;;;;;;;20.25;19.25;;;;;;;;5070024;28;49763;-60
2022/04/16 01:52:30;;;;;;;;;25.50;20.75;;;;;;;;5070029;28;49946;-60
2022/04/16 01:54:55;;;;;;;;;20.00;20.00;;;;;;;;5069450;28;50401;-60
2022/04/16 01:57:21;;;;;;;;;24.25;22.00;;;;;;;;5069841;28;49615;-61
2022/04/16 01:59:46;;;;;;;;;21.75;18.75;;;;;;;;5069290;28;49696;-60
2022/04/16 02:02:12;;;;;;;;;20.75;19.50;;;;;;;;5072064;28;49747;-61
2022/04/16 02:04:37;;;;;;;;;20.50;20.50;;;;;;;;5073174;28;49961;-61
2022/04/16 02:07:02;;;;;;;;;21.75;20.25;;;;;;;;5054911;28;50047;-61
2022/04/16 02:09:27;;;;;;;;;21.50;19.75;;;;;;;;5073241;28;49687;-68
2022/04/16 02:11:53;;;;;;;;;24.75;21.75;;;;;;;;5073288;28;49962;-59
2022/04/16 02:14:18;;;;;;;;;24.00;22.25;;;;;;;;5071991;28;49893;-62
2022/04/16 02:16:43;;;;;;;;;19.00;19.00;;;;;;;;5073030;28;50091;-71
2022/04/16 02:19:09;;;;;;;;;24.00;24.00;;;;;;;;5072913;28;49708;-63
2022/04/16 02:21:35;;;;;;;;;28.50;24.25;;;;;;;;5072993;28;49907;-61
2022/04/16 02:24:00;;;;;;;;;25.50;24.50;;;;;;;;5072641;28;49731;-65
2022/04/16 02:26:26;;;;;;;;;29.25;25.25;;;;;;;;5072862;28;49812;-60
2022/04/16 02:28:51;;;;;;;;;26.00;23.00;;;;;;;;5072575;28;49837;-61
2022/04/16 02:31:16;;;;;;;;;21.75;18.50;;;;;;;;5073025;28;50051;-68
2022/04/16 02:33:41;;;;;;;;;30.25;28.75;;;;;;;;5072541;27;50320;-60
2022/04/16 02:36:07;;;;;;;;;23.00;21.75;;;;;;;;5072577;27;49774;-60
2022/04/16 02:38:32;;;;;;;;;29.00;24.50;;;;;;;;5072511;28;50174;-69
2022/04/16 02:40:58;;;;;;;;;21.75;21.25;;;;;;;;5072795;28;49557;-65
2022/04/16 02:43:23;;;;;;;;;31.25;25.00;;;;;;;;5072004;27;49802;-61
2022/04/16 02:48:33;;;;;;;;;26.50;26.00;;;;;;;;5072696;28;49911;-60
2022/04/16 02:50:58;;;;;;;;;25.25;22.00;;;;;;;;5072616;27;49825;-69
2022/04/16 02:53:26;;;;;;;;;30.25;25.75;;;;;;;;5071937;28;49852;-69
2022/04/16 02:55:51;;;;;;;;;33.25;26.25;;;;;;;;5071043;27;49960;-64
2022/04/16 02:58:16;;;;;;;;;27.75;25.25;;;;;;;;5071975;27;49698;-70
2022/04/16 03:00:42;;;;;;;;;25.25;22.25;;;;;;;;5072525;28;49506;-60
2022/04/16 03:03:08;;;;;;;;;23.25;20.25;;;;;;;;5072015;28;49903;-61
2022/04/16 03:05:34;;;;;;;;;28.50;27.50;;;;;;;;5072402;28;49813;-61
2022/04/16 03:08:00;;;;;;;;;36.00;28.25;;;;;;;;5072128;28;49745;-69
2022/04/16 03:10:25;;;;;;;;;27.00;26.25;;;;;;;;5072160;28;50215;-60
2022/04/16 03:12:51;;;;;;;;;26.25;22.25;;;;;;;;5071526;28;50744;-60
2022/04/16 03:18:01;;;;;;;;;28.75;26.75;;;;;;;;5072072;28;49731;-61
2022/04/16 03:20:27;;;;;;;;;33.75;27.50;;;;;;;;5072126;28;49115;-66
2022/04/16 03:22:53;;;;;;;;;28.75;26.75;;;;;;;;5071641;27;50331;-59
2022/04/16 03:25:18;;;;;;;;;25.25;21.75;;;;;;;;5071833;28;49739;-67
2022/04/16 03:27:43;;;;;;;;;40.75;33.75;;;;;;;;5071643;28;49768;-59
2022/04/16 03:30:09;;;;;;;;;33.50;29.75;;;;;;;;5072072;28;49979;-59
2022/04/16 03:32:38;;;;;;;;;29.50;29.00;;;;;;;;5071447;28;49676;-61
2022/04/16 03:35:05;;;;;;;;;29.75;27.75;;;;;;;;5071766;28;49914;-60
2022/04/16 03:37:30;;;;;;;;;37.50;30.50;;;;;;;;5071112;28;49656;-64
2022/04/16 03:39:55;;;;;;;;;34.50;32.00;;;;;;;;5071905;28;49831;-61
2022/04/16 03:42:20;;;;;;;;;33.50;30.50;;;;;;;;5071219;28;50512;-68
2022/04/16 03:44:45;;;;;;;;;31.50;30.25;;;;;;;;5071577;28;49946;-61
2022/04/16 03:47:11;;;;;;;;;33.50;29.50;;;;;;;;5071063;28;49889;-61
2022/04/16 03:49:39;;;;;;;;;37.25;31.00;;;;;;;;5071468;28;49863;-63
2022/04/16 03:52:05;;;;;;;;;36.00;30.50;;;;;;;;5070996;28;50402;-59
2022/04/16 04:00:03;;;;;;;;;36.50;32.50;;;;;;;;5071463;28;49950;-59
2022/04/16 04:02:29;;;;;;;;;42.50;34.00;;;;;;;;5071028;28;50551;-62
2022/04/16 04:04:54;;;;;;;;;35.75;27.50;;;;;;;;5071197;28;49786;-59
2022/04/16 04:07:19;;;;;;;;;34.00;32.00;;;;;;;;5071114;28;50172;-59
2022/04/16 04:09:45;;;;;;;;;33.75;31.75;;;;;;;;5071308;28;49630;-59
2022/04/16 04:12:11;;;;;;;;;35.00;33.75;;;;;;;;5070895;28;49658;-59
2022/04/16 04:14:39;;;;;;;;;34.75;31.75;;;;;;;;5070803;28;49637;-67
2022/04/16 04:17:06;;;;;;;;;33.25;32.00;;;;;;;;5071160;28;49726;-61
2022/04/16 04:19:32;;;;;;;;;40.00;32.50;;;;;;;;5071276;28;49988;-60
2022/04/16 04:21:57;;;;;;;;;32.75;31.25;;;;;;;;5070820;28;49585;-59
2022/04/16 04:24:22;;;;;;;;;37.25;29.25;;;;;;;;5070497;28;49641;-70
2022/04/16 04:26:48;;;;;;;;;33.75;31.00;;;;;;;;5070779;28;49546;-71
2022/04/16 04:29:13;;;;;;;;;40.25;34.25;;;;;;;;5070733;28;50053;-71
2022/04/16 04:31:38;;;;;;;;;36.50;33.50;;;;;;;;5070486;28;51253;-68
2022/04/16 04:34:03;;;;;;;;;37.50;34.25;;;;;;;;5070727;28;49864;-71
2022/04/16 04:36:28;;;;;;;;;45.25;39.50;;;;;;;;5071178;28;50150;-70
2022/04/16 04:38:53;;;;;;;;;38.00;36.75;;;;;;;;5071001;28;49917;-68
2022/04/16 04:41:19;;;;;;;;;33.75;32.25;;;;;;;;5063873;27;49843;-71
2022/04/16 04:43:44;;;;;;;;;34.00;31.00;;;;;;;;5070660;28;49687;-71
2022/04/16 04:46:09;;;;;;;;;33.50;29.75;;;;;;;;5070351;28;50053;-66
2022/04/16 04:48:34;;;;;;;;;40.75;35.00;;;;;;;;5070933;28;49945;-70
2022/04/16 04:50:59;;;;;;;;;43.25;34.75;;;;;;;;5070537;28;50359;-70
2022/04/16 04:53:25;;;;;;;;;43.75;38.25;;;;;;;;5070548;28;49715;-71
2022/04/16 04:55:50;;;;;;;;;42.75;38.00;;;;;;;;5070531;28;49700;-64
2022/04/16 04:58:15;;;;;;;;;33.75;29.50;;;;;;;;5070596;28;49628;-60
2022/04/16 05:00:40;;;;;;;;;37.75;32.50;;;;;;;;5069850;28;49782;-66
2022/04/16 05:03:05;;;;;;;;;41.75;35.00;;;;;;;;5070347;28;49825;-60
2022/04/16 05:05:31;;;;;;;;;40.00;37.25;;;;;;;;5070392;28;49739;-59
2022/04/16 05:07:56;;;;;;;;;41.00;35.75;;;;;;;;5070719;28;49669;-59
2022/04/16 05:10:22;;;;;;;;;31.00;29.00;;;;;;;;5070572;28;50015;-61
2022/04/16 05:12:47;;;;;;;;;37.25;35.25;;;;;;;;5070409;28;49935;-61
2022/04/16 05:15:12;;;;;;;;;47.00;37.25;;;;;;;;5070233;28;49760;-65
2022/04/16 05:17:37;;;;;;;;;41.50;36.50;;;;;;;;5052335;28;49993;-64
2022/04/16 05:20:04;;;;;;;;;33.25;32.25;;;;;;;;5070167;28;50299;-58
2022/04/16 05:22:30;;;;;;;;;39.75;34.75;;;;;;;;5070223;28;49841;-64
2022/04/16 05:24:55;;;;;;;;;44.25;34.50;;;;;;;;5070425;28;49744;-66
2022/04/16 05:27:20;;;;;;;;;42.50;38.00;;;;;;;;5070494;28;49739;-68
2022/04/16 05:29:48;;;;;;;;;35.00;31.25;;;;;;;;5069654;28;50887;-60
2022/04/16 05:32:16;;;;;;;;;45.75;39.00;;;;;;;;5070258;27;50005;-70
2022/04/16 05:34:42;;;;;;;;;40.00;37.25;;;;;;;;5073573;27;49596;-65
2022/04/16 05:37:07;;;;;;;;;43.25;39.00;;;;;;;;5081305;27;50070;-70
2022/04/16 05:39:32;;;;;;;;;36.50;35.00;;;;;;;;5076305;28;50809;-70
2022/04/16 05:41:57;;;;;;;;;45.50;37.50;;;;;;;;5079065;27;49792;-70
2022/04/16 05:44:22;;;;;;;;;51.00;40.25;;;;;;;;5082183;27;49814;-69
2022/04/16 05:46:48;;;;;;;;;50.75;41.25;;;;;;;;5077321;27;49524;-71
2022/04/16 05:49:13;;;;;;;;;44.75;39.00;;;;;;;;5084018;28;50621;-58
2022/04/16 05:51:38;;;;;;;;;45.00;38.75;;;;;;;;5079710;28;49662;-59
2022/04/16 05:54:03;;;;;;;;;40.25;37.25;;;;;;;;5076078;28;49781;-59
2022/04/16 05:56:30;;;;;;;;;43.50;37.75;;;;;;;;5072464;28;49542;-74
2022/04/16 05:58:55;;;;;;;;;51.00;41.50;;;;;;;;5054320;28;51524;-60
2022/04/16 06:01:20;;;;;;;;;47.75;40.25;;;;;;;;5076736;27;49691;-63
2022/04/16 06:03:46;;;;;;;;;45.50;38.75;;;;;;;;5072537;27;49920;-60
2022/04/16 06:06:11;;;;;;;;;40.00;36.50;;;;;;;;5073197;27;49758;-60
2022/04/16 06:08:36;;;;;;;;;47.50;37.25;;;;;;;;5078011;27;50653;-59
2022/04/16 06:11:04;;;;;;;;;44.00;39.00;;;;;;;;5077937;27;50873;-60
2022/04/16 06:13:30;;;;;;;;;41.00;36.25;;;;;;;;5072742;27;49762;-60
2022/04/16 06:15:55;;;;;;;;;46.50;40.00;;;;;;;;5081262;27;49868;-62
2022/04/16 06:18:20;;;;;;;;;46.75;37.50;;;;;;;;5054495;28;51094;-60
2022/04/16 06:20:46;;;;;;;;;43.25;38.25;;;;;;;;5073631;27;49905;-60
2022/04/16 06:23:11;;;;;;;;;47.00;39.50;;;;;;;;5073972;27;49826;-61
2022/04/16 06:25:36;;;;;;;;;45.25;39.25;;;;;;;;5073967;27;49824;-60
2022/04/16 06:28:02;;;;;;;;;48.25;39.50;;;;;;;;5072406;27;49833;-61
2022/04/16 06:30:28;;;;;;;;;43.00;39.00;;;;;;;;5075773;27;49776;-62
2022/04/16 06:32:53;;;;;;;;;41.25;38.00;;;;;;;;5074261;27;49927;-67
2022/04/16 06:35:18;;;;;;;;;51.00;39.25;;;;;;;;5075547;27;50279;-68
2022/04/16 06:37:44;;;;;;;;;51.25;43.75;;;;;;;;5072800;27;50634;-68
2022/04/16 06:40:09;;;;;;;;;49.25;40.25;;;;;;;;5075879;27;49800;-72
2022/04/16 06:42:35;;;;;;;;;54.00;44.50;;;;;;;;5072726;28;49921;-70
2022/04/16 06:45:00;;;;;;;;;54.50;42.25;;;;;;;;5072528;28;49731;-68
2022/04/16 06:47:26;;;;;;;;;44.00;40.25;;;;;;;;5076533;27;50557;-67
2022/04/16 06:49:51;;;;;;;;;49.25;39.00;;;;;;;;5072373;28;49771;-66
2022/04/16 06:52:17;;;;;;;;;47.25;38.25;;;;;;;;5072515;28;49722;-65
2022/04/16 06:54:42;;;;;;;;;38.75;36.00;;;;;;;;5072171;28;50037;-66
2022/04/16 06:57:07;;;;;;;;;47.25;39.50;;;;;;;;5072172;28;50368;-69
2022/04/16 06:59:33;;;;;;;;;45.75;40.00;;;;;;;;5071992;28;50049;-70
2022/04/16 07:01:58;;;;;;;;;41.50;38.50;;;;;;;;5072301;27;49676;-69
2022/04/16 07:04:23;;;;;;;;;45.25;39.00;;;;;;;;5086875;27;49748;-68
2022/04/16 07:06:48;;;;;;;;;44.75;38.00;;;;;;;;5073854;27;49745;-63
2022/04/16 07:09:13;;;;;;;;;45.25;38.50;;;;;;;;5071834;28;50051;-65
2022/04/16 07:11:38;;;;;;;;;50.00;39.50;;;;;;;;5066128;27;49732;-64
2022/04/16 07:14:04;;;;;;;;;44.50;37.75;;;;;;;;5071811;27;49865;-68
2022/04/16 07:16:29;;;;;;;;;46.50;39.75;;;;;;;;5071790;27;50576;-70
2022/04/16 07:18:57;;;;;;;;;44.50;39.25;;;;;;;;5072086;27;50495;-81
2022/04/16 07:21:22;;;;;;;;;44.00;37.25;;;;;;;;5053866;28;49784;-79
2022/04/16 07:23:48;;;;;;;;;54.50;43.75;;;;;;;;5071930;28;50017;-74
2022/04/16 07:26:13;;;;;;;;;39.50;35.25;;;;;;;;5072670;27;49957;-82
2022/04/16 07:28:38;;;;;;;;;39.50;31.50;;;;;;;;5052425;28;49772;-72
2022/04/16 07:31:03;;;;;;;;;53.50;41.50;;;;;;;;5071389;27;49829;-66
2022/04/16 07:33:31;;;;;;;;;46.75;41.50;;;;;;;;5074685;27;49905;-79
2022/04/16 07:35:57;;;;;;;;;41.25;38.00;;;;;;;;5074607;27;49774;-75
2022/04/16 07:38:22;;;;;;;;;39.00;35.75;;;;;;;;5074962;28;49684;-77
2022/04/16 07:40:47;;;;;;;;;51.75;40.50;;;;;;;;5075630;27;49748;-75
2022/04/16 07:43:14;;;;;;;;;52.75;42.25;;;;;;;;5059921;28;50194;-71
2022/04/16 07:45:40;;;;;;;;;51.50;42.00;;;;;;;;5077557;28;50798;-70
2022/04/16 07:48:05;;;;;;;;;43.00;37.00;;;;;;;;5068511;27;50081;-66
2022/04/16 07:50:30;;;;;;;;;49.00;40.00;;;;;;;;5073155;27;50019;-68
2022/04/16 07:52:56;;;;;;;;;42.00;34.75;;;;;;;;5069337;28;49894;-67
2022/04/16 07:55:22;;;;;;;;;34.50;29.00;;;;;;;;5069234;27;50397;-73
2022/04/16 07:57:48;;;;;;;;;55.25;40.50;;;;;;;;5068355;28;50152;-68
2022/04/16 08:00:14;;;;;;;;;54.00;44.00;;;;;;;;5068278;28;49789;-71
2022/04/16 08:02:39;;;;;;;;;49.25;38.25;;;;;;;;5069329;27;49788;-67
2022/04/16 08:05:05;;;;;;;;;51.50;42.75;;;;;;;;5068988;28;49737;-67
2022/04/16 08:07:32;;;;;;;;;49.75;38.00;;;;;;;;5069301;28;49814;-67
2022/04/16 08:09:57;;;;;;;;;49.00;39.75;;;;;;;;5071118;28;49951;-67
2022/04/16 08:12:22;;;;;;;;;49.00;39.75;;;;;;;;5071372;27;49581;-74
2022/04/16 08:14:47;;;;;;;;;38.00;35.75;;;;;;;;5070415;28;50248;-67
2022/04/16 08:17:13;;;;;;;;;45.25;38.00;;;;;;;;5070959;28;49743;-67
2022/04/16 08:19:38;;;;;;;;;56.00;45.00;;;;;;;;5070811;27;49595;-74
2022/04/16 08:22:07;;;;;;;;;36.50;33.75;;;;;;;;5071144;27;50206;-72
2022/04/16 08:24:39;;;;;;;;;46.00;38.75;;;;;;;;5070538;28;50791;-72
2022/04/16 08:27:05;;;;;;;;;44.25;40.00;;;;;;;;5070781;27;49789;-67
2022/04/16 08:29:30;;;;;;;;;39.50;35.75;;;;;;;;5070696;28;49969;-71
2022/04/16 08:31:55;;;;;;;;;44.75;39.00;;;;;;;;5071024;27;49788;-67
2022/04/16 08:34:20;;;;;;;;;49.75;37.50;;;;;;;;5070823;27;50445;-67
2022/04/16 08:36:46;;;;;;;;;47.75;39.25;;;;;;;;5070798;27;49907;-67
2022/04/16 08:39:11;;;;;;;;;46.25;37.50;;;;;;;;5070680;28;49779;-69
2022/04/16 08:41:37;;;;;;;;;38.75;36.75;;;;;;;;5070751;27;49732;-67
2022/04/16 08:44:02;;;;;;;;;46.75;41.00;;;;;;;;5070314;28;50268;-68
2022/04/16 08:46:30;;;;;;;;;50.75;42.50;;;;;;;;5070567;28;49892;-67
2022/04/16 08:48:57;;;;;;;;;52.50;39.75;;;;;;;;5070696;28;49604;-66
2022/04/16 08:51:22;;;;;;;;;56.25;44.25;;;;;;;;5070906;27;49782;-70
2022/04/16 08:53:48;;;;;;;;;49.50;37.75;;;;;;;;5070142;27;50663;-73
2022/04/16 08:56:13;;;;;;;;;48.75;39.75;;;;;;;;5070181;28;49751;-68
2022/04/16 08:58:38;;;;;;;;;51.00;41.75;;;;;;;;5070386;28;49633;-67
2022/04/16 09:01:04;;;;;;;;;55.75;46.00;;;;;;;;5070593;27;49858;-70
2022/04/16 09:03:36;;;;;;;;;42.75;35.75;;;;;;;;5070231;28;49724;-68
2022/04/16 09:06:02;;;;;;;;;50.00;38.25;;;;;;;;5070373;28;49790;-67
2022/04/16 09:08:31;;;;;;;;;43.50;36.75;;;;;;;;5052348;28;49654;-67
2022/04/16 09:11:10;;;;;;;;;44.75;37.50;;;;;;;;5072443;27;50045;-68
2022/04/16 09:13:39;;;;;;;;;45.25;38.00;;;;;;;;5068115;27;50517;-67
2022/04/16 09:16:05;;;;;;;;;46.75;39.00;;;;;;;;5073440;27;49870;-67
2022/04/16 09:18:30;;;;;;;;;49.50;42.75;;;;;;;;5073766;27;49863;-69
2022/04/16 09:20:55;;;;;;;;;38.25;32.25;;;;;;;;5074174;28;49822;-69
2022/04/16 09:23:21;;;;;;;;;44.00;37.25;;;;;;;;5073953;28;50627;-70
2022/04/16 09:25:47;;;;;;;;;42.50;37.75;;;;;;;;5073851;28;49707;-68
2022/04/16 09:28:15;;;;;;;;;37.50;34.25;;;;;;;;5073745;28;49834;-67
2022/04/16 09:30:48;;;;;;;;;43.50;36.50;;;;;;;;5073995;28;50052;-66
2022/04/16 09:33:13;;;;;;;;;45.25;36.25;;;;;;;;5073206;27;50797;-66
2022/04/16 09:35:39;;;;;;;;;45.25;37.50;;;;;;;;5073408;27;49775;-67
2022/04/16 09:38:06;;;;;;;;;51.75;41.75;;;;;;;;5073666;28;49531;-71
2022/04/16 09:40:32;;;;;;;;;36.50;34.25;;;;;;;;5073700;28;49654;-70
2022/04/16 09:43:00;;;;;;;;;32.00;30.50;;;;;;;;5073391;28;50456;-67
2022/04/16 09:45:26;;;;;;;;;44.50;38.25;;;;;;;;5073412;28;49900;-67
2022/04/16 09:47:52;;;;;;;;;41.50;34.25;;;;;;;;5073036;28;49621;-67
2022/04/16 09:50:20;;;;;;;;;42.75;37.00;;;;;;;;5073532;28;49819;-71
2022/04/16 09:53:02;;;;;;;;;31.50;27.75;;;;;;;;5073039;28;50702;-67
2022/04/16 09:55:28;;;;;;;;;45.75;38.25;;;;;;;;5073242;28;49838;-67
2022/04/16 09:58:03;;;;;;;;;37.25;33.50;;;;;;;;5073438;28;49792;-67
2022/04/16 10:00:29;;;;;;;;;33.50;32.50;;;;;;;;5067893;28;49688;-67
2022/04/16 10:02:55;;;;;;;;;36.75;32.25;;;;;;;;5072989;28;51021;-67
2022/04/16 10:05:21;;;;;;;;;28.50;26.75;;;;;;;;5072963;28;49625;-68
2022/04/16 10:07:46;;;;;;;;;33.25;27.25;;;;;;;;5073154;27;49875;-68
2022/04/16 10:10:18;;;;;;;;;24.00;24.00;;;;;;;;5073687;28;49924;-69
2022/04/16 10:13:01;;;;;;;;;13.25;13.25;;;;;;;;5066702;28;50569;-66
2022/04/16 10:15:40;;;;;;;;;23.75;22.75;;;;;;;;5072793;28;49674;-66
2022/04/16 10:18:05;;;;;;;;;19.25;19.00;;;;;;;;5073117;28;49786;-67
2022/04/16 10:20:30;;;;;;;;;22.75;20.50;;;;;;;;5054985;28;50004;-68
2022/04/16 10:22:57;;;;;;;;;32.50;30.25;;;;;;;;5072452;28;50504;-67
2022/04/16 10:25:28;;;;;;;;;20.25;18.00;;;;;;;;5072616;28;49823;-69
2022/04/16 10:27:59;;;;;;;;;28.00;24.50;;;;;;;;5072880;28;49934;-74
2022/04/16 10:30:34;;;;;;;;;18.25;18.25;;;;;;;;5072840;28;49843;-68
2022/04/16 10:33:03;;;;;;;;;30.75;23.50;;;;;;;;5072554;28;50838;-74
2022/04/16 10:35:28;;;;;;;;;25.50;25.50;;;;;;;;5072796;28;49962;-67
2022/04/16 10:37:54;;;;;;;;;21.50;21.00;;;;;;;;5054739;28;49795;-70
2022/04/16 10:40:20;;;;;;;;;30.75;28.25;;;;;;;;5072825;27;49578;-72
2022/04/16 10:42:49;;;;;;;;;32.00;29.50;;;;;;;;5072053;28;50269;-74
2022/04/16 10:45:14;;;;;;;;;34.00;29.50;;;;;;;;5072128;28;49777;-75
2022/04/16 10:47:41;;;;;;;;;17.50;16.00;;;;;;;;5072391;27;50329;-72
2022/04/16 10:50:07;;;;;;;;;13.75;12.25;;;;;;;;5072567;28;50115;-68
2022/04/16 10:52:32;;;;;;;;;22.75;19.00;;;;;;;;5072090;28;51033;-67
2022/04/16 10:55:01;;;;;;;;;23.25;21.00;;;;;;;;5071871;28;49913;-71
2022/04/16 10:57:26;;;;;;;;;15.25;14.00;;;;;;;;5072569;28;49681;-70
2022/04/16 10:59:56;;;;;;;;;18.50;16.75;;;;;;;;5072262;28;49712;-75
2022/04/16 11:02:23;;;;;;;;;20.75;19.50;;;;;;;;5071796;28;50510;-68
2022/04/16 11:04:55;;;;;;;;;19.50;19.25;;;;;;;;5071997;28;49624;-67
2022/04/16 11:07:21;;;;;;;;;15.00;15.00;;;;;;;;5072754;28;49826;-70
2022/04/16 11:09:50;;;;;;;;;21.25;18.50;;;;;;;;5072360;28;49797;-72
2022/04/16 11:12:15;;;;;;;;;2.25;2.25;;;;;;;;5072149;28;50520;-68
2022/04/16 11:14:41;;;;;;;;;11.50;11.50;;;;;;;;5071809;28;49772;-71
2022/04/16 11:17:06;;;;;;;;;13.25;13.00;;;;;;;;5072032;28;49744;-71
2022/04/16 11:19:34;;;;;;;;;14.75;14.25;;;;;;;;5072283;27;49802;-68
2022/04/16 11:21:59;;;;;;;;;18.50;17.50;;;;;;;;5071686;28;50273;-69
2022/04/16 11:24:26;;;;;;;;;15.25;14.25;;;;;;;;5071983;27;49849;-70
2022/04/16 11:35:11;;;;;;;;;9.75;9.75;;;;;;;;5070384;27;49633;-72
2022/04/16 11:37:36;;;;;;;;;13.75;10.75;;;;;;;;5071538;28;49651;-72
2022/04/16 11:40:03;;;;;;;;;11.00;8.50;;;;;;;;5071469;28;49605;-67
2022/04/16 11:42:29;;;;;;;;;8.25;8.25;;;;;;;;5070289;27;51708;-69
2022/04/16 11:44:55;;;;;;;;;9.75;7.00;;;;;;;;5071109;28;49588;-71
2022/04/16 11:47:22;;;;;;;;;9.25;7.75;;;;;;;;5071834;27;49837;-72
2022/04/16 11:49:53;;;;;;;;;19.00;18.75;;;;;;;;5071669;28;49855;-73
2022/04/16 11:52:22;;;;;;;;;32.75;29.00;;;;;;;;5071132;27;50532;-73
2022/04/16 11:54:47;;;;;;;;;8.00;8.00;;;;;;;;5070982;28;49828;-69
2022/04/16 11:57:22;;;;;;;;;3.00;3.00;;;;;;;;5071277;27;49751;-73
2022/04/16 11:59:55;;;;;;;;;5.50;4.00;;;;;;;;5071212;28;49765;-70
2022/04/16 12:02:20;;;;;;;;;4.50;4.50;;;;;;;;5071251;27;50884;-68
2022/04/16 12:04:45;;;;;;;;;3.75;3.75;;;;;;;;5071263;28;50040;-70
2022/04/16 12:07:14;;;;;;;;;8.75;8.75;;;;;;;;5071437;28;49671;-70
2022/04/16 12:09:44;;;;;;;;;3.25;3.00;;;;;;;;5071631;27;49670;-67
2022/04/16 12:12:12;;;;;;;;;4.00;4.00;;;;;;;;5070408;28;49687;-67
2022/04/16 12:14:43;;;;;;;;;2.00;2.00;;;;;;;;5070805;28;49734;-72
2022/04/16 12:17:09;;;;;;;;;7.00;5.50;;;;;;;;5071211;27;49776;-69
2022/04/16 12:19:34;;;;;;;;;5.00;3.00;;;;;;;;5071005;27;49502;-73
2022/04/16 12:21:59;;;;;;;;;2.75;2.75;;;;;;;;5070877;27;50351;-71
2022/04/16 12:24:25;;;;;;;;;4.50;4.50;;;;;;;;5071108;28;50201;-69
2022/04/16 12:26:51;;;;;;;;;3.75;3.75;;;;;;;;5071170;28;49644;-74
2022/04/16 12:29:18;;;;;;;;;5.00;4.00;;;;;;;;5070865;28;49661;-67
2022/04/16 12:31:43;;;;;;;;;2.75;2.75;;;;;;;;5070700;28;50596;-69
2022/04/16 12:34:08;;;;;;;;;4.00;4.00;;;;;;;;5070690;28;49673;-68
2022/04/16 12:36:33;;;;;;;;;10.25;9.75;;;;;;;;5070768;28;49944;-73
2022/04/16 12:38:59;;;;;;;;;6.25;5.50;;;;;;;;5070878;28;49642;-74
2022/04/16 12:41:25;;;;;;;;;6.75;6.75;;;;;;;;5070693;28;50425;-67
2022/04/16 12:43:51;;;;;;;;;9.75;8.75;;;;;;;;5070857;27;49875;-72
2022/04/16 12:46:16;;;;;;;;;8.00;8.00;;;;;;;;5070114;28;49756;-67
2022/04/16 12:48:41;;;;;;;;;10.50;9.00;;;;;;;;5070740;27;49554;-70
2022/04/16 12:51:06;;;;;;;;;7.75;6.00;;;;;;;;5070311;28;50681;-69
2022/04/16 12:53:32;;;;;;;;;6.50;6.50;;;;;;;;5070239;28;49829;-67
2022/04/16 12:55:59;;;;;;;;;4.00;3.25;;;;;;;;5070273;28;49750;-70
2022/04/16 12:58:24;;;;;;;;;4.25;4.25;;;;;;;;5070516;28;49514;-74
2022/04/16 13:00:49;;;;;;;;;5.00;5.00;;;;;;;;5069895;28;49711;-68
2022/04/16 13:03:14;;;;;;;;;4.50;4.50;;;;;;;;5070242;28;49679;-72
2022/04/16 13:05:40;;;;;;;;;3.75;3.50;;;;;;;;5051950;28;49864;-71
2022/04/16 13:08:05;;;;;;;;;8.00;7.75;;;;;;;;5070845;28;49921;-71
2022/04/16 13:10:30;;;;;;;;;7.00;6.00;;;;;;;;5069968;28;50475;-67
2022/04/16 13:12:59;;;;;;;;;8.00;6.00;;;;;;;;5070038;28;49743;-72
2022/04/16 13:15:24;;;;;;;;;4.50;4.50;;;;;;;;5070196;28;49632;-75
2022/04/16 13:17:50;;;;;;;;;4.00;4.00;;;;;;;;5070033;28;49870;-72
2022/04/16 13:20:16;;;;;;;;;2.00;2.00;;;;;;;;5070077;28;49707;-74
2022/04/16 13:22:41;;;;;;;;;4.00;4.00;;;;;;;;5070124;27;49703;-73
2022/04/16 13:25:07;;;;;;;;;6.75;5.25;;;;;;;;5070141;28;49723;-70
2022/04/16 13:27:32;;;;;;;;;6.75;5.00;;;;;;;;5070251;28;49588;-70
2022/04/16 13:29:57;;;;;;;;;1.50;1.50;;;;;;;;5069513;28;49779;-74
2022/04/16 13:32:23;;;;;;;;;4.00;3.25;;;;;;;;5069955;28;49684;-73
2022/04/16 13:34:48;;;;;;;;;10.25;8.00;;;;;;;;5070185;27;49767;-68
2022/04/16 13:37:13;;;;;;;;;5.00;4.50;;;;;;;;5070334;28;49849;-70
2022/04/16 13:42:22;;;;;;;;;3.25;3.25;;;;;;;;5069933;28;49581;-66
2022/04/16 13:44:51;;;;;;;;;4.75;4.75;;;;;;;;5051197;28;49802;-67
2022/04/16 13:47:20;;;;;;;;;2.50;2.50;;;;;;;;5069912;28;49715;-67
2022/04/16 13:49:46;;;;;;;;;6.00;5.50;;;;;;;;5063353;28;49619;-68
2022/04/16 13:52:11;;;;;;;;;4.00;4.00;;;;;;;;5070384;28;49701;-67
2022/04/16 13:54:37;;;;;;;;;4.25;4.25;;;;;;;;5069680;28;49747;-67
2022/04/16 13:57:03;;;;;;;;;5.75;5.75;;;;;;;;5070914;28;49816;-67
2022/04/16 13:59:29;;;;;;;;;4.00;4.00;;;;;;;;5072847;27;49806;-67
2022/04/16 14:01:55;;;;;;;;;3.00;3.00;;;;;;;;5073136;28;49728;-67
2022/04/16 14:04:21;;;;;;;;;5.00;4.00;;;;;;;;5072993;28;49687;-68
2022/04/16 14:06:46;;;;;;;;;5.00;5.00;;;;;;;;5073297;28;49596;-73
2022/04/16 14:09:11;;;;;;;;;6.00;6.00;;;;;;;;5072988;28;50610;-75
2022/04/16 14:11:41;;;;;;;;;5.00;5.00;;;;;;;;5073104;28;49858;-72
2022/04/16 14:14:07;;;;;;;;;4.00;4.00;;;;;;;;5072846;27;49619;-73
2022/04/16 14:16:33;;;;;;;;;4.00;4.00;;;;;;;;5073089;28;49550;-74
2022/04/16 14:18:58;;;;;;;;;3.50;2.75;;;;;;;;5072853;28;50811;-73
2022/04/16 14:21:23;;;;;;;;;5.75;3.50;;;;;;;;5073423;28;50003;-74
2022/04/16 14:23:49;;;;;;;;;9.25;9.25;;;;;;;;5072837;28;49792;-74
2022/04/16 14:26:14;;;;;;;;;7.00;6.00;;;;;;;;5073234;28;50111;-73
2022/04/16 14:28:39;;;;;;;;;6.50;5.00;;;;;;;;5072257;28;50162;-70
2022/04/16 14:31:05;;;;;;;;;4.75;4.75;;;;;;;;5072791;28;49710;-75
2022/04/16 14:33:38;;;;;;;;;6.50;6.50;;;;;;;;5072995;28;49847;-75
2022/04/16 14:36:06;;;;;;;;;4.50;3.75;;;;;;;;5072993;27;49896;-74